sensor_id;sensor_type;location;lat;lon;timestamp;P1;durP1;ratioP1;P2;durP2;ratioP2
60436;SDS011;46289;51.992;4.498;2023-02-10T00:01:01;37.00;;;15.55;;
60436;SDS011;46289;51.992;4.498;2023-02-10T00:03:09;45.08;;;15.02;;
60436;SDS011;46289;51.992;4.498;2023-02-10T00:05:14;38.28;;;15.00;;
60436;SDS011;46289;51.992;4.498;2023-02-10T00:07:19;31.23;;;14.25;;
60436;SDS011;46289;51.992;4.498;2023-02-10T00:09:24;33.10;;;15.15;;
60436;SDS011;46289;51.992;4.498;2023-02-10T00:11:29;34.78;;;13.05;;
60436;SDS011;46289;51.992;4.498;2023-02-10T00:13:46;41.85;;;14.95;;
60436;SDS011;46289;51.992;4.498;2023-02-10T00:15:54;36.67;;;14.40;;
60436;SDS011;46289;51.992;4.498;2023-02-10T00:18:02;43.30;;;15.82;;
60436;SDS011;46289;51.992;4.498;2023-02-10T00:20:08;38.15;;;15.23;;
60436;SDS011;46289;51.992;4.498;2023-02-10T00:22:16;36.88;;;14.00;;
60436;SDS011;46289;51.992;4.498;2023-02-10T00:24:21;43.40;;;16.45;;
60436;SDS011;46289;51.992;4.498;2023-02-10T00:26:27;49.40;;;16.90;;
60436;SDS011;46289;51.992;4.498;2023-02-10T00:28:32;45.65;;;16.65;;
60436;SDS011;46289;51.992;4.498;2023-02-10T00:30:41;46.33;;;17.13;;
60436;SDS011;46289;51.992;4.498;2023-02-10T00:32:46;51.05;;;17.20;;
60436;SDS011;46289;51.992;4.498;2023-02-10T00:34:53;40.53;;;15.93;;
60436;SDS011;46289;51.992;4.498;2023-02-10T00:36:59;47.42;;;17.38;;
60436;SDS011;46289;51.992;4.498;2023-02-10T00:39:04;49.10;;;16.83;;
60436;SDS011;46289;51.992;4.498;2023-02-10T00:41:11;53.58;;;18.08;;
60436;SDS011;46289;51.992;4.498;2023-02-10T00:43:18;36.30;;;15.38;;
60436;SDS011;46289;51.992;4.498;2023-02-10T00:45:26;36.88;;;14.88;;
60436;SDS011;46289;51.992;4.498;2023-02-10T00:47:33;47.10;;;16.77;;
60436;SDS011;46289;51.992;4.498;2023-02-10T00:49:40;55.42;;;17.88;;
60436;SDS011;46289;51.992;4.498;2023-02-10T00:51:48;42.75;;;17.77;;
60436;SDS011;46289;51.992;4.498;2023-02-10T00:53:56;49.75;;;17.40;;
60436;SDS011;46289;51.992;4.498;2023-02-10T00:56:01;43.03;;;16.63;;
60436;SDS011;46289;51.992;4.498;2023-02-10T00:58:07;45.03;;;15.90;;
60436;SDS011;46289;51.992;4.498;2023-02-10T01:00:15;48.13;;;18.95;;
60436;SDS011;46289;51.992;4.498;2023-02-10T01:02:21;44.92;;;17.08;;
60436;SDS011;46289;51.992;4.498;2023-02-10T01:04:28;45.90;;;18.40;;
60436;SDS011;46289;51.992;4.498;2023-02-10T01:06:33;46.40;;;19.15;;
60436;SDS011;46289;51.992;4.498;2023-02-10T01:08:39;51.13;;;19.40;;
60436;SDS011;46289;51.992;4.498;2023-02-10T01:10:44;57.72;;;18.98;;
60436;SDS011;46289;51.992;4.498;2023-02-10T01:12:49;49.00;;;17.10;;
60436;SDS011;46289;51.992;4.498;2023-02-10T01:14:54;58.45;;;20.40;;
60436;SDS011;46289;51.992;4.498;2023-02-10T01:17:00;58.70;;;21.77;;
60436;SDS011;46289;51.992;4.498;2023-02-10T01:19:08;46.13;;;18.17;;
60436;SDS011;46289;51.992;4.498;2023-02-10T01:21:18;51.15;;;17.27;;
60436;SDS011;46289;51.992;4.498;2023-02-10T01:23:24;52.47;;;19.83;;
60436;SDS011;46289;51.992;4.498;2023-02-10T01:25:30;50.53;;;18.42;;
60436;SDS011;46289;51.992;4.498;2023-02-10T01:27:36;46.17;;;16.65;;
60436;SDS011;46289;51.992;4.498;2023-02-10T01:29:42;52.47;;;18.88;;
60436;SDS011;46289;51.992;4.498;2023-02-10T01:31:47;63.53;;;20.17;;
60436;SDS011;46289;51.992;4.498;2023-02-10T01:33:53;53.75;;;19.40;;
60436;SDS011;46289;51.992;4.498;2023-02-10T01:36:02;50.72;;;18.75;;
60436;SDS011;46289;51.992;4.498;2023-02-10T01:38:10;42.42;;;16.75;;
60436;SDS011;46289;51.992;4.498;2023-02-10T01:40:15;42.05;;;18.00;;
60436;SDS011;46289;51.992;4.498;2023-02-10T01:42:20;51.03;;;18.52;;
60436;SDS011;46289;51.992;4.498;2023-02-10T01:47:16;61.80;;;21.88;;
60436;SDS011;46289;51.992;4.498;2023-02-10T01:49:25;48.22;;;17.92;;
60436;SDS011;46289;51.992;4.498;2023-02-10T01:51:35;50.47;;;19.42;;
60436;SDS011;46289;51.992;4.498;2023-02-10T01:53:45;43.88;;;17.52;;
60436;SDS011;46289;51.992;4.498;2023-02-10T01:55:51;46.13;;;17.33;;
60436;SDS011;46289;51.992;4.498;2023-02-10T01:57:59;52.58;;;18.77;;
60436;SDS011;46289;51.992;4.498;2023-02-10T02:00:07;49.50;;;17.67;;
60436;SDS011;46289;51.992;4.498;2023-02-10T02:02:15;50.33;;;18.52;;
60436;SDS011;46289;51.992;4.498;2023-02-10T02:04:22;61.60;;;19.45;;
60436;SDS011;46289;51.992;4.498;2023-02-10T02:06:28;59.88;;;19.85;;
60436;SDS011;46289;51.992;4.498;2023-02-10T02:08:33;54.08;;;18.42;;
60436;SDS011;46289;51.992;4.498;2023-02-10T02:10:51;48.65;;;17.33;;
60436;SDS011;46289;51.992;4.498;2023-02-10T02:13:06;55.35;;;20.23;;
60436;SDS011;46289;51.992;4.498;2023-02-10T02:15:18;50.38;;;18.02;;
60436;SDS011;46289;51.992;4.498;2023-02-10T02:17:29;62.55;;;21.38;;
60436;SDS011;46289;51.992;4.498;2023-02-10T02:19:53;55.80;;;19.00;;
60436;SDS011;46289;51.992;4.498;2023-02-10T02:22:43;64.93;;;19.13;;
60436;SDS011;46289;51.992;4.498;2023-02-10T02:25:15;71.72;;;21.83;;
60436;SDS011;46289;51.992;4.498;2023-02-10T02:27:39;56.40;;;19.13;;
60436;SDS011;46289;51.992;4.498;2023-02-10T02:32:38;73.70;;;24.38;;
60436;SDS011;46289;51.992;4.498;2023-02-10T02:34:49;68.60;;;22.02;;
60436;SDS011;46289;51.992;4.498;2023-02-10T02:37:01;64.13;;;21.03;;
60436;SDS011;46289;51.992;4.498;2023-02-10T02:39:12;62.28;;;19.42;;
60436;SDS011;46289;51.992;4.498;2023-02-10T02:41:21;54.88;;;18.45;;
60436;SDS011;46289;51.992;4.498;2023-02-10T02:43:28;52.30;;;19.50;;
60436;SDS011;46289;51.992;4.498;2023-02-10T02:45:41;50.95;;;17.65;;
60436;SDS011;46289;51.992;4.498;2023-02-10T02:48:03;65.53;;;21.85;;
60436;SDS011;46289;51.992;4.498;2023-02-10T02:50:21;60.88;;;19.67;;
60436;SDS011;46289;51.992;4.498;2023-02-10T02:52:31;48.38;;;17.20;;
60436;SDS011;46289;51.992;4.498;2023-02-10T02:54:46;43.00;;;15.55;;
60436;SDS011;46289;51.992;4.498;2023-02-10T02:56:58;57.60;;;19.10;;
60436;SDS011;46289;51.992;4.498;2023-02-10T03:01:20;48.28;;;14.00;;
60436;SDS011;46289;51.992;4.498;2023-02-10T03:03:33;66.55;;;20.02;;
60436;SDS011;46289;51.992;4.498;2023-02-10T03:05:42;41.33;;;17.63;;
60436;SDS011;46289;51.992;4.498;2023-02-10T03:07:47;43.50;;;16.25;;
60436;SDS011;46289;51.992;4.498;2023-02-10T03:09:52;51.80;;;19.05;;
60436;SDS011;46289;51.992;4.498;2023-02-10T03:12:00;37.95;;;17.15;;
60436;SDS011;46289;51.992;4.498;2023-02-10T03:14:05;50.92;;;18.88;;
60436;SDS011;46289;51.992;4.498;2023-02-10T03:16:09;67.35;;;19.75;;
60436;SDS011;46289;51.992;4.498;2023-02-10T03:18:15;49.53;;;18.35;;
60436;SDS011;46289;51.992;4.498;2023-02-10T03:20:22;45.30;;;16.70;;
60436;SDS011;46289;51.992;4.498;2023-02-10T03:22:28;48.08;;;18.15;;
60436;SDS011;46289;51.992;4.498;2023-02-10T03:24:33;44.55;;;15.32;;
60436;SDS011;46289;51.992;4.498;2023-02-10T03:26:42;62.13;;;19.73;;
60436;SDS011;46289;51.992;4.498;2023-02-10T03:28:46;50.15;;;17.27;;
60436;SDS011;46289;51.992;4.498;2023-02-10T03:30:51;44.47;;;17.35;;
60436;SDS011;46289;51.992;4.498;2023-02-10T03:32:58;38.63;;;17.83;;
60436;SDS011;46289;51.992;4.498;2023-02-10T03:35:03;53.03;;;19.27;;
60436;SDS011;46289;51.992;4.498;2023-02-10T03:37:12;51.38;;;20.10;;
60436;SDS011;46289;51.992;4.498;2023-02-10T03:39:17;57.35;;;21.50;;
60436;SDS011;46289;51.992;4.498;2023-02-10T03:41:21;57.08;;;19.20;;
60436;SDS011;46289;51.992;4.498;2023-02-10T03:43:26;59.80;;;18.50;;
60436;SDS011;46289;51.992;4.498;2023-02-10T03:45:32;49.47;;;18.10;;
60436;SDS011;46289;51.992;4.498;2023-02-10T03:47:37;40.05;;;17.02;;
60436;SDS011;46289;51.992;4.498;2023-02-10T03:49:42;38.78;;;16.65;;
60436;SDS011;46289;51.992;4.498;2023-02-10T03:51:47;44.88;;;16.60;;
60436;SDS011;46289;51.992;4.498;2023-02-10T03:53:55;43.72;;;17.35;;
60436;SDS011;46289;51.992;4.498;2023-02-10T03:56:01;50.88;;;18.70;;
60436;SDS011;46289;51.992;4.498;2023-02-10T03:58:06;43.95;;;17.05;;
60436;SDS011;46289;51.992;4.498;2023-02-10T04:00:11;53.40;;;16.00;;
60436;SDS011;46289;51.992;4.498;2023-02-10T04:02:18;41.45;;;16.77;;
60436;SDS011;46289;51.992;4.498;2023-02-10T04:04:23;65.65;;;20.75;;
60436;SDS011;46289;51.992;4.498;2023-02-10T04:06:28;54.70;;;19.85;;
60436;SDS011;46289;51.992;4.498;2023-02-10T04:08:33;48.85;;;19.55;;
60436;SDS011;46289;51.992;4.498;2023-02-10T04:10:44;59.72;;;19.17;;
60436;SDS011;46289;51.992;4.498;2023-02-10T04:12:49;79.45;;;22.58;;
60436;SDS011;46289;51.992;4.498;2023-02-10T04:14:54;73.25;;;24.23;;
60436;SDS011;46289;51.992;4.498;2023-02-10T04:17:01;57.92;;;20.83;;
60436;SDS011;46289;51.992;4.498;2023-02-10T04:19:07;77.95;;;21.27;;
60436;SDS011;46289;51.992;4.498;2023-02-10T04:21:12;70.13;;;22.67;;
60436;SDS011;46289;51.992;4.498;2023-02-10T04:23:17;73.32;;;23.33;;
60436;SDS011;46289;51.992;4.498;2023-02-10T04:25:25;72.70;;;22.00;;
60436;SDS011;46289;51.992;4.498;2023-02-10T04:27:33;87.60;;;26.17;;
60436;SDS011;46289;51.992;4.498;2023-02-10T04:29:42;70.13;;;23.33;;
60436;SDS011;46289;51.992;4.498;2023-02-10T04:31:47;78.03;;;24.73;;
60436;SDS011;46289;51.992;4.498;2023-02-10T04:33:52;92.18;;;27.67;;
60436;SDS011;46289;51.992;4.498;2023-02-10T04:35:58;75.88;;;24.83;;
60436;SDS011;46289;51.992;4.498;2023-02-10T04:38:04;80.25;;;26.80;;
60436;SDS011;46289;51.992;4.498;2023-02-10T04:40:11;72.95;;;23.60;;
60436;SDS011;46289;51.992;4.498;2023-02-10T04:42:16;71.50;;;25.73;;
60436;SDS011;46289;51.992;4.498;2023-02-10T04:44:36;68.70;;;25.33;;
60436;SDS011;46289;51.992;4.498;2023-02-10T04:46:41;81.88;;;26.83;;
60436;SDS011;46289;51.992;4.498;2023-02-10T04:48:47;69.05;;;24.15;;
60436;SDS011;46289;51.992;4.498;2023-02-10T04:50:51;76.75;;;24.38;;
60436;SDS011;46289;51.992;4.498;2023-02-10T04:52:57;76.72;;;26.92;;
60436;SDS011;46289;51.992;4.498;2023-02-10T04:55:03;93.53;;;29.67;;
60436;SDS011;46289;51.992;4.498;2023-02-10T04:57:08;81.95;;;27.55;;
60436;SDS011;46289;51.992;4.498;2023-02-10T04:59:13;67.80;;;25.45;;
60436;SDS011;46289;51.992;4.498;2023-02-10T05:01:23;83.47;;;28.88;;
60436;SDS011;46289;51.992;4.498;2023-02-10T05:03:28;73.43;;;27.00;;
60436;SDS011;46289;51.992;4.498;2023-02-10T05:05:33;74.40;;;26.13;;
60436;SDS011;46289;51.992;4.498;2023-02-10T05:07:42;81.15;;;27.42;;
60436;SDS011;46289;51.992;4.498;2023-02-10T05:09:47;84.13;;;29.33;;
60436;SDS011;46289;51.992;4.498;2023-02-10T05:11:52;57.40;;;23.00;;
60436;SDS011;46289;51.992;4.498;2023-02-10T05:13:57;77.45;;;25.38;;
60436;SDS011;46289;51.992;4.498;2023-02-10T05:16:03;62.78;;;22.67;;
60436;SDS011;46289;51.992;4.498;2023-02-10T05:18:12;69.95;;;23.83;;
60436;SDS011;46289;51.992;4.498;2023-02-10T05:20:17;74.88;;;25.65;;
60436;SDS011;46289;51.992;4.498;2023-02-10T05:22:21;77.28;;;27.65;;
60436;SDS011;46289;51.992;4.498;2023-02-10T05:24:31;71.55;;;25.60;;
60436;SDS011;46289;51.992;4.498;2023-02-10T05:26:38;68.30;;;25.88;;
60436;SDS011;46289;51.992;4.498;2023-02-10T05:28:44;71.50;;;26.58;;
60436;SDS011;46289;51.992;4.498;2023-02-10T05:30:49;72.40;;;27.60;;
60436;SDS011;46289;51.992;4.498;2023-02-10T05:32:54;69.90;;;25.23;;
60436;SDS011;46289;51.992;4.498;2023-02-10T05:35:04;59.60;;;23.23;;
60436;SDS011;46289;51.992;4.498;2023-02-10T05:37:09;62.13;;;22.48;;
60436;SDS011;46289;51.992;4.498;2023-02-10T05:39:15;58.53;;;22.50;;
60436;SDS011;46289;51.992;4.498;2023-02-10T05:41:29;52.00;;;20.48;;
60436;SDS011;46289;51.992;4.498;2023-02-10T05:43:36;63.13;;;23.15;;
60436;SDS011;46289;51.992;4.498;2023-02-10T05:45:42;60.30;;;22.67;;
60436;SDS011;46289;51.992;4.498;2023-02-10T05:47:50;63.45;;;24.80;;
60436;SDS011;46289;51.992;4.498;2023-02-10T05:49:57;59.08;;;25.65;;
60436;SDS011;46289;51.992;4.498;2023-02-10T05:52:05;48.63;;;20.80;;
60436;SDS011;46289;51.992;4.498;2023-02-10T05:54:10;60.00;;;23.52;;
60436;SDS011;46289;51.992;4.498;2023-02-10T05:56:15;38.65;;;19.13;;
60436;SDS011;46289;51.992;4.498;2023-02-10T05:58:20;55.58;;;23.35;;
60436;SDS011;46289;51.992;4.498;2023-02-10T06:00:26;56.50;;;20.67;;
60436;SDS011;46289;51.992;4.498;2023-02-10T06:02:31;49.47;;;20.30;;
60436;SDS011;46289;51.992;4.498;2023-02-10T06:04:37;39.28;;;19.77;;
60436;SDS011;46289;51.992;4.498;2023-02-10T06:06:42;48.05;;;20.00;;
60436;SDS011;46289;51.992;4.498;2023-02-10T06:08:49;48.42;;;20.88;;
60436;SDS011;46289;51.992;4.498;2023-02-10T06:10:54;43.55;;;19.27;;
60436;SDS011;46289;51.992;4.498;2023-02-10T06:12:59;40.17;;;19.60;;
60436;SDS011;46289;51.992;4.498;2023-02-10T06:15:04;40.63;;;19.45;;
60436;SDS011;46289;51.992;4.498;2023-02-10T06:17:10;41.60;;;17.98;;
60436;SDS011;46289;51.992;4.498;2023-02-10T06:19:15;42.28;;;18.17;;
60436;SDS011;46289;51.992;4.498;2023-02-10T06:21:21;47.83;;;19.67;;
60436;SDS011;46289;51.992;4.498;2023-02-10T06:23:29;47.65;;;17.95;;
60436;SDS011;46289;51.992;4.498;2023-02-10T06:25:39;45.83;;;19.38;;
60436;SDS011;46289;51.992;4.498;2023-02-10T06:27:45;48.80;;;20.05;;
60436;SDS011;46289;51.992;4.498;2023-02-10T06:29:50;36.33;;;15.52;;
60436;SDS011;46289;51.992;4.498;2023-02-10T06:31:55;43.55;;;18.98;;
60436;SDS011;46289;51.992;4.498;2023-02-10T06:34:00;47.72;;;19.40;;
60436;SDS011;46289;51.992;4.498;2023-02-10T06:36:09;45.63;;;17.45;;
60436;SDS011;46289;51.992;4.498;2023-02-10T06:38:16;38.30;;;17.65;;
60436;SDS011;46289;51.992;4.498;2023-02-10T06:40:21;36.70;;;18.13;;
60436;SDS011;46289;51.992;4.498;2023-02-10T06:42:28;41.42;;;17.02;;
60436;SDS011;46289;51.992;4.498;2023-02-10T06:44:33;44.83;;;18.05;;
60436;SDS011;46289;51.992;4.498;2023-02-10T06:46:40;38.30;;;18.67;;
60436;SDS011;46289;51.992;4.498;2023-02-10T06:48:48;40.97;;;19.10;;
60436;SDS011;46289;51.992;4.498;2023-02-10T06:50:53;33.78;;;16.30;;
60436;SDS011;46289;51.992;4.498;2023-02-10T06:52:58;41.42;;;19.60;;
60436;SDS011;46289;51.992;4.498;2023-02-10T06:55:03;36.85;;;19.55;;
60436;SDS011;46289;51.992;4.498;2023-02-10T06:57:10;36.33;;;16.75;;
60436;SDS011;46289;51.992;4.498;2023-02-10T06:59:18;34.00;;;15.18;;
60436;SDS011;46289;51.992;4.498;2023-02-10T07:01:23;35.10;;;16.65;;
60436;SDS011;46289;51.992;4.498;2023-02-10T07:03:28;39.38;;;17.85;;
60436;SDS011;46289;51.992;4.498;2023-02-10T07:05:33;33.55;;;16.05;;
60436;SDS011;46289;51.992;4.498;2023-02-10T07:07:41;30.77;;;16.67;;
60436;SDS011;46289;51.992;4.498;2023-02-10T07:09:46;37.60;;;18.92;;
60436;SDS011;46289;51.992;4.498;2023-02-10T07:11:54;33.88;;;16.52;;
60436;SDS011;46289;51.992;4.498;2023-02-10T07:14:02;38.25;;;19.42;;
60436;SDS011;46289;51.992;4.498;2023-02-10T07:16:09;32.65;;;18.40;;
60436;SDS011;46289;51.992;4.498;2023-02-10T07:18:17;32.80;;;17.20;;
60436;SDS011;46289;51.992;4.498;2023-02-10T07:20:23;36.70;;;17.95;;
60436;SDS011;46289;51.992;4.498;2023-02-10T07:22:29;38.25;;;19.20;;
60436;SDS011;46289;51.992;4.498;2023-02-10T07:24:35;34.30;;;17.33;;
60436;SDS011;46289;51.992;4.498;2023-02-10T07:26:41;30.10;;;18.40;;
60436;SDS011;46289;51.992;4.498;2023-02-10T07:28:49;39.33;;;19.25;;
60436;SDS011;46289;51.992;4.498;2023-02-10T07:30:54;42.72;;;20.85;;
60436;SDS011;46289;51.992;4.498;2023-02-10T07:33:02;40.15;;;19.65;;
60436;SDS011;46289;51.992;4.498;2023-02-10T07:35:07;38.22;;;17.58;;
60436;SDS011;46289;51.992;4.498;2023-02-10T07:37:16;34.42;;;17.40;;
60436;SDS011;46289;51.992;4.498;2023-02-10T07:39:21;39.33;;;18.33;;
60436;SDS011;46289;51.992;4.498;2023-02-10T07:41:27;34.65;;;17.35;;
60436;SDS011;46289;51.992;4.498;2023-02-10T07:43:32;40.95;;;18.63;;
60436;SDS011;46289;51.992;4.498;2023-02-10T07:45:37;39.40;;;19.08;;
60436;SDS011;46289;51.992;4.498;2023-02-10T07:47:42;36.13;;;19.17;;
60436;SDS011;46289;51.992;4.498;2023-02-10T07:49:52;36.05;;;17.65;;
60436;SDS011;46289;51.992;4.498;2023-02-10T07:51:58;35.53;;;17.67;;
60436;SDS011;46289;51.992;4.498;2023-02-10T07:54:03;32.72;;;17.48;;
60436;SDS011;46289;51.992;4.498;2023-02-10T07:56:08;33.58;;;17.33;;
60436;SDS011;46289;51.992;4.498;2023-02-10T07:58:16;39.63;;;18.25;;
60436;SDS011;46289;51.992;4.498;2023-02-10T08:00:21;44.47;;;19.92;;
60436;SDS011;46289;51.992;4.498;2023-02-10T08:02:26;34.15;;;16.88;;
60436;SDS011;46289;51.992;4.498;2023-02-10T08:04:31;42.05;;;19.90;;
60436;SDS011;46289;51.992;4.498;2023-02-10T08:06:40;36.10;;;20.17;;
60436;SDS011;46289;51.992;4.498;2023-02-10T08:08:45;32.53;;;16.33;;
60436;SDS011;46289;51.992;4.498;2023-02-10T08:10:53;42.08;;;19.98;;
60436;SDS011;46289;51.992;4.498;2023-02-10T08:12:59;29.60;;;15.77;;
60436;SDS011;46289;51.992;4.498;2023-02-10T08:15:04;36.33;;;18.35;;
60436;SDS011;46289;51.992;4.498;2023-02-10T08:17:11;33.40;;;16.65;;
60436;SDS011;46289;51.992;4.498;2023-02-10T08:19:16;36.80;;;18.60;;
60436;SDS011;46289;51.992;4.498;2023-02-10T08:21:21;34.45;;;17.38;;
60436;SDS011;46289;51.992;4.498;2023-02-10T08:23:30;39.63;;;17.55;;
60436;SDS011;46289;51.992;4.498;2023-02-10T08:25:35;38.63;;;19.42;;
60436;SDS011;46289;51.992;4.498;2023-02-10T08:27:42;31.17;;;16.42;;
60436;SDS011;46289;51.992;4.498;2023-02-10T08:29:48;33.72;;;17.02;;
60436;SDS011;46289;51.992;4.498;2023-02-10T08:31:54;35.83;;;17.20;;
60436;SDS011;46289;51.992;4.498;2023-02-10T08:34:01;38.58;;;18.98;;
60436;SDS011;46289;51.992;4.498;2023-02-10T08:36:08;40.10;;;19.38;;
60436;SDS011;46289;51.992;4.498;2023-02-10T08:38:14;37.90;;;17.13;;
60436;SDS011;46289;51.992;4.498;2023-02-10T08:40:22;47.67;;;18.10;;
60436;SDS011;46289;51.992;4.498;2023-02-10T08:42:27;38.55;;;18.52;;
60436;SDS011;46289;51.992;4.498;2023-02-10T08:44:32;33.75;;;18.52;;
60436;SDS011;46289;51.992;4.498;2023-02-10T08:46:37;37.13;;;18.60;;
60436;SDS011;46289;51.992;4.498;2023-02-10T08:48:43;38.65;;;19.52;;
60436;SDS011;46289;51.992;4.498;2023-02-10T08:50:51;43.53;;;19.90;;
60436;SDS011;46289;51.992;4.498;2023-02-10T08:52:59;43.92;;;18.58;;
60436;SDS011;46289;51.992;4.498;2023-02-10T08:55:07;42.90;;;19.77;;
60436;SDS011;46289;51.992;4.498;2023-02-10T08:57:15;39.80;;;19.27;;
60436;SDS011;46289;51.992;4.498;2023-02-10T08:59:20;42.35;;;19.10;;
60436;SDS011;46289;51.992;4.498;2023-02-10T09:01:25;50.83;;;20.20;;
60436;SDS011;46289;51.992;4.498;2023-02-10T09:03:31;39.95;;;18.83;;
60436;SDS011;46289;51.992;4.498;2023-02-10T09:05:36;45.85;;;19.83;;
60436;SDS011;46289;51.992;4.498;2023-02-10T09:07:42;38.80;;;20.35;;
60436;SDS011;46289;51.992;4.498;2023-02-10T09:09:50;46.55;;;21.45;;
60436;SDS011;46289;51.992;4.498;2023-02-10T09:11:56;42.60;;;18.40;;
60436;SDS011;46289;51.992;4.498;2023-02-10T09:14:03;45.42;;;20.00;;
60436;SDS011;46289;51.992;4.498;2023-02-10T09:16:10;41.17;;;18.70;;
60436;SDS011;46289;51.992;4.498;2023-02-10T09:18:15;47.25;;;18.88;;
60436;SDS011;46289;51.992;4.498;2023-02-10T09:20:20;36.17;;;17.63;;
60436;SDS011;46289;51.992;4.498;2023-02-10T09:22:25;42.83;;;20.13;;
60436;SDS011;46289;51.992;4.498;2023-02-10T09:24:30;52.72;;;21.13;;
60436;SDS011;46289;51.992;4.498;2023-02-10T09:26:38;44.42;;;20.48;;
60436;SDS011;46289;51.992;4.498;2023-02-10T09:28:52;44.10;;;19.58;;
60436;SDS011;46289;51.992;4.498;2023-02-10T09:31:00;42.30;;;17.70;;
60436;SDS011;46289;51.992;4.498;2023-02-10T09:33:05;37.22;;;18.35;;
60436;SDS011;46289;51.992;4.498;2023-02-10T09:35:10;43.72;;;18.52;;
60436;SDS011;46289;51.992;4.498;2023-02-10T09:37:15;42.88;;;20.10;;
60436;SDS011;46289;51.992;4.498;2023-02-10T09:39:21;46.92;;;20.02;;
60436;SDS011;46289;51.992;4.498;2023-02-10T09:41:32;52.35;;;20.92;;
60436;SDS011;46289;51.992;4.498;2023-02-10T09:43:49;51.90;;;20.80;;
60436;SDS011;46289;51.992;4.498;2023-02-10T09:46:08;43.20;;;20.25;;
60436;SDS011;46289;51.992;4.498;2023-02-10T09:48:23;50.38;;;20.85;;
60436;SDS011;46289;51.992;4.498;2023-02-10T09:50:35;40.60;;;20.60;;
60436;SDS011;46289;51.992;4.498;2023-02-10T09:52:55;45.28;;;21.23;;
60436;SDS011;46289;51.992;4.498;2023-02-10T09:55:13;43.60;;;19.85;;
60436;SDS011;46289;51.992;4.498;2023-02-10T09:57:21;41.58;;;19.90;;
60436;SDS011;46289;51.992;4.498;2023-02-10T09:59:34;37.75;;;16.77;;
60436;SDS011;46289;51.992;4.498;2023-02-10T10:01:46;43.53;;;17.15;;
60436;SDS011;46289;51.992;4.498;2023-02-10T10:06:06;39.38;;;16.17;;
60436;SDS011;46289;51.992;4.498;2023-02-10T10:08:22;38.47;;;15.88;;
60436;SDS011;46289;51.992;4.498;2023-02-10T10:10:34;40.92;;;18.67;;
60436;SDS011;46289;51.992;4.498;2023-02-10T10:12:44;38.90;;;17.00;;
60436;SDS011;46289;51.992;4.498;2023-02-10T10:14:49;37.75;;;17.05;;
60436;SDS011;46289;51.992;4.498;2023-02-10T10:19:34;31.63;;;14.85;;
60436;SDS011;46289;51.992;4.498;2023-02-10T10:21:56;40.17;;;16.65;;
60436;SDS011;46289;51.992;4.498;2023-02-10T10:24:12;31.50;;;16.02;;
60436;SDS011;46289;51.992;4.498;2023-02-10T10:26:34;30.73;;;15.48;;
60436;SDS011;46289;51.992;4.498;2023-02-10T10:28:54;32.53;;;14.77;;
60436;SDS011;46289;51.992;4.498;2023-02-10T10:31:12;37.25;;;15.13;;
60436;SDS011;46289;51.992;4.498;2023-02-10T10:35:35;29.90;;;14.73;;
60436;SDS011;46289;51.992;4.498;2023-02-10T10:37:45;29.60;;;15.00;;
60436;SDS011;46289;51.992;4.498;2023-02-10T10:39:51;29.23;;;14.25;;
60436;SDS011;46289;51.992;4.498;2023-02-10T10:41:59;26.98;;;15.73;;
60436;SDS011;46289;51.992;4.498;2023-02-10T10:44:07;30.20;;;15.40;;
60436;SDS011;46289;51.992;4.498;2023-02-10T10:46:15;34.13;;;15.07;;
60436;SDS011;46289;51.992;4.498;2023-02-10T10:48:29;32.08;;;15.73;;
60436;SDS011;46289;51.992;4.498;2023-02-10T10:50:38;30.10;;;15.43;;
60436;SDS011;46289;51.992;4.498;2023-02-10T10:52:46;30.17;;;14.55;;
60436;SDS011;46289;51.992;4.498;2023-02-10T10:54:54;28.67;;;15.73;;
60436;SDS011;46289;51.992;4.498;2023-02-10T10:57:01;29.38;;;15.80;;
60436;SDS011;46289;51.992;4.498;2023-02-10T10:59:12;31.73;;;13.90;;
60436;SDS011;46289;51.992;4.498;2023-02-10T11:01:29;32.95;;;15.13;;
60436;SDS011;46289;51.992;4.498;2023-02-10T11:03:41;31.15;;;14.77;;
60436;SDS011;46289;51.992;4.498;2023-02-10T11:05:55;33.33;;;15.68;;
60436;SDS011;46289;51.992;4.498;2023-02-10T11:08:04;32.00;;;15.63;;
60436;SDS011;46289;51.992;4.498;2023-02-10T11:10:19;31.83;;;16.33;;
60436;SDS011;46289;51.992;4.498;2023-02-10T11:12:28;33.60;;;17.15;;
60436;SDS011;46289;51.992;4.498;2023-02-10T11:14:39;29.55;;;15.55;;
60436;SDS011;46289;51.992;4.498;2023-02-10T11:16:51;35.78;;;17.98;;
60436;SDS011;46289;51.992;4.498;2023-02-10T11:19:01;33.47;;;17.63;;
60436;SDS011;46289;51.992;4.498;2023-02-10T11:21:07;35.15;;;16.90;;
60436;SDS011;46289;51.992;4.498;2023-02-10T11:23:14;34.40;;;16.92;;
60436;SDS011;46289;51.992;4.498;2023-02-10T11:25:25;33.88;;;16.83;;
60436;SDS011;46289;51.992;4.498;2023-02-10T11:27:32;32.33;;;17.25;;
60436;SDS011;46289;51.992;4.498;2023-02-10T11:29:40;34.63;;;17.95;;
60436;SDS011;46289;51.992;4.498;2023-02-10T11:31:51;33.65;;;17.70;;
60436;SDS011;46289;51.992;4.498;2023-02-10T11:34:00;35.72;;;17.73;;
60436;SDS011;46289;51.992;4.498;2023-02-10T11:36:18;34.67;;;17.30;;
60436;SDS011;46289;51.992;4.498;2023-02-10T11:38:33;38.95;;;17.15;;
60436;SDS011;46289;51.992;4.498;2023-02-10T11:40:47;39.83;;;18.33;;
60436;SDS011;46289;51.992;4.498;2023-02-10T11:42:55;38.53;;;18.42;;
60436;SDS011;46289;51.992;4.498;2023-02-10T11:45:10;32.65;;;17.67;;
60436;SDS011;46289;51.992;4.498;2023-02-10T11:47:21;32.13;;;15.98;;
60436;SDS011;46289;51.992;4.498;2023-02-10T11:49:30;35.28;;;17.98;;
60436;SDS011;46289;51.992;4.498;2023-02-10T11:51:35;30.67;;;15.88;;
60436;SDS011;46289;51.992;4.498;2023-02-10T11:53:42;34.45;;;17.60;;
60436;SDS011;46289;51.992;4.498;2023-02-10T11:55:51;34.65;;;17.60;;
60436;SDS011;46289;51.992;4.498;2023-02-10T11:58:07;41.10;;;18.88;;
60436;SDS011;46289;51.992;4.498;2023-02-10T12:00:37;31.33;;;17.02;;
60436;SDS011;46289;51.992;4.498;2023-02-10T12:05:34;29.10;;;16.27;;
60436;SDS011;46289;51.992;4.498;2023-02-10T12:07:48;35.92;;;16.20;;
60436;SDS011;46289;51.992;4.498;2023-02-10T12:10:04;31.42;;;16.48;;
60436;SDS011;46289;51.992;4.498;2023-02-10T12:12:18;33.78;;;16.90;;
60436;SDS011;46289;51.992;4.498;2023-02-10T12:14:42;33.30;;;16.50;;
60436;SDS011;46289;51.992;4.498;2023-02-10T12:16:58;36.60;;;17.08;;
60436;SDS011;46289;51.992;4.498;2023-02-10T12:19:12;32.30;;;16.55;;
60436;SDS011;46289;51.992;4.498;2023-02-10T12:21:32;33.15;;;15.52;;
60436;SDS011;46289;51.992;4.498;2023-02-10T12:24:06;30.27;;;14.48;;
60436;SDS011;46289;51.992;4.498;2023-02-10T12:26:21;24.23;;;11.57;;
60436;SDS011;46289;51.992;4.498;2023-02-10T12:28:33;29.48;;;13.75;;
60436;SDS011;46289;51.992;4.498;2023-02-10T12:30:51;29.05;;;13.00;;
60436;SDS011;46289;51.992;4.498;2023-02-10T12:33:22;26.13;;;11.80;;
60436;SDS011;46289;51.992;4.498;2023-02-10T12:35:40;23.73;;;11.05;;
60436;SDS011;46289;51.992;4.498;2023-02-10T12:37:57;25.60;;;12.18;;
60436;SDS011;46289;51.992;4.498;2023-02-10T12:40:19;29.42;;;12.20;;
60436;SDS011;46289;51.992;4.498;2023-02-10T12:42:43;27.60;;;15.38;;
60436;SDS011;46289;51.992;4.498;2023-02-10T12:45:00;21.88;;;11.38;;
60436;SDS011;46289;51.992;4.498;2023-02-10T12:47:19;22.70;;;10.35;;
60436;SDS011;46289;51.992;4.498;2023-02-10T12:49:38;24.50;;;9.68;;